Time;durP1;ratioP1;P1;durP2;ratioP2;P2;SDS_P1;SDS_P2;PMS_P1;PMS_P2;Temp;Humidity;BMP_temperature;BMP_pressure;BME280_temperature;BME280_humidity;BME280_pressure;Samples;Min_cycle;Max_cycle;Signal;HPM_P1;HPM_P2
2021/08/21 00:00:31;;;;;;;3.55;2.33;;;;;;;16.72;75.28;96800.70;1812118;78;20937;-81
2021/08/21 00:02:58;;;;;;;3.65;2.12;;;;;;;16.73;75.35;96804.94;1812065;78;20981;-81
2021/08/21 00:05:24;;;;;;;3.27;2.10;;;;;;;16.74;75.44;96805.23;1803538;78;20960;-81
2021/08/21 00:07:50;;;;;;;2.90;2.08;;;;;;;16.74;75.32;96809.98;1801170;78;20996;-81
2021/08/21 00:10:16;;;;;;;3.85;2.27;;;;;;;16.76;75.32;96805.86;1802740;78;20977;-81
2021/08/21 00:12:42;;;;;;;2.67;2.05;;;;;;;16.76;75.20;96809.28;1797176;78;20969;-81
2021/08/21 00:15:14;;;;;;;2.02;1.72;;;;;;;16.74;75.22;96809.17;1778586;78;21057;-81
2021/08/21 00:17:39;;;;;;;4.08;2.12;;;;;;;16.71;75.28;96803.84;1778605;78;20976;-81
2021/08/21 00:20:06;;;;;;;2.62;1.65;;;;;;;16.70;75.40;96804.05;1802631;78;20968;-82
2021/08/21 00:22:33;;;;;;;3.27;1.82;;;;;;;16.70;75.17;96807.98;1802692;77;21016;-82
2021/08/21 00:24:59;;;;;;;3.70;2.10;;;;;;;16.69;74.93;96805.88;1800898;78;20964;-82
2021/08/21 00:27:26;;;;;;;3.50;1.85;;;;;;;16.68;75.03;96805.58;1799074;77;20925;-81
2021/08/21 00:29:53;;;;;;;3.87;2.42;;;;;;;16.67;75.17;96805.80;1771298;80;21417;-81
2021/08/21 00:32:19;;;;;;;2.15;1.82;;;;;;;16.67;75.09;96809.73;1799631;78;20983;-81
2021/08/21 00:34:44;;;;;;;3.45;1.90;;;;;;;16.66;75.05;96806.77;1796665;78;20961;-82
2021/08/21 00:37:10;;;;;;;2.90;1.67;;;;;;;16.64;74.99;96806.19;1806268;78;20965;-81
2021/08/21 00:39:36;;;;;;;3.15;1.70;;;;;;;16.62;74.82;96805.59;1801778;78;21362;-81
2021/08/21 00:42:04;;;;;;;2.72;2.08;;;;;;;16.60;74.83;96811.56;1803414;78;21061;-81
2021/08/21 00:44:31;;;;;;;3.47;2.08;;;;;;;16.58;75.00;96810.94;1800579;78;21402;-81
2021/08/21 00:47:11;;;;;;;2.27;2.00;;;;;;;16.55;75.02;96812.67;1800797;78;20992;-81
2021/08/21 00:49:39;;;;;;;3.83;1.82;;;;;;;16.54;74.90;96806.62;1797033;78;20967;-81
2021/08/21 00:52:10;;;;;;;3.65;2.30;;;;;;;16.54;75.07;96809.75;1807076;78;20976;-81
2021/08/21 00:54:36;;;;;;;3.52;2.00;;;;;;;16.55;75.10;96808.23;1800622;78;20923;-82
2021/08/21 00:57:03;;;;;;;3.55;2.15;;;;;;;16.55;75.29;96810.85;1803033;78;21490;-81
2021/08/21 00:59:31;;;;;;;4.92;2.25;;;;;;;16.56;75.62;96805.09;1799147;78;20960;-81
2021/08/21 01:01:57;;;;;;;3.45;2.20;;;;;;;16.48;75.72;96793.84;1799263;78;20930;-81
2021/08/21 01:04:23;;;;;;;4.08;2.02;;;;;;;16.55;75.82;96804.30;1774986;78;20983;-81
2021/08/21 01:06:49;;;;;;;4.17;1.92;;;;;;;16.59;75.97;96800.73;1799522;78;21025;-81
2021/08/21 01:09:14;;;;;;;4.33;2.08;;;;;;;16.59;75.80;96804.16;1799425;78;20996;-82
2021/08/21 01:11:40;;;;;;;3.10;1.87;;;;;;;16.60;75.47;96803.18;1794648;78;20976;-81
2021/08/21 01:14:06;;;;;;;3.55;1.87;;;;;;;16.58;75.39;96801.75;1802008;78;20945;-81
2021/08/21 01:16:31;;;;;;;3.87;2.05;;;;;;;16.54;75.47;96805.81;1798337;78;20950;-81
2021/08/21 01:18:57;;;;;;;2.45;2.20;;;;;;;16.51;75.48;96803.11;1775462;78;21370;-81
2021/08/21 01:21:23;;;;;;;3.15;1.72;;;;;;;16.47;75.43;96802.72;1767995;79;21402;-81
2021/08/21 01:23:49;;;;;;;2.05;1.75;;;;;;;16.46;75.39;96802.94;1764838;80;20967;-81
2021/08/21 01:26:15;;;;;;;3.17;2.60;;;;;;;16.44;75.52;96797.09;1769651;80;21087;-81
2021/08/21 01:28:40;;;;;;;2.95;2.20;;;;;;;16.40;75.42;96795.88;1764519;80;21024;-81
2021/08/21 01:31:06;;;;;;;3.17;2.17;;;;;;;16.36;75.40;96799.43;1765960;79;20963;-82
2021/08/21 01:33:35;;;;;;;2.75;2.25;;;;;;;16.33;75.56;96792.49;1763790;80;20945;-82
2021/08/21 01:36:00;;;;;;;2.45;1.70;;;;;;;16.29;75.68;96793.42;1764013;80;20956;-81
2021/08/21 01:38:26;;;;;;;3.22;2.00;;;;;;;16.25;75.64;96789.58;1766508;80;20983;-81
2021/08/21 01:40:52;;;;;;;3.77;2.37;;;;;;;16.19;75.61;96790.41;1765345;80;21365;-81
2021/08/21 01:43:19;;;;;;;3.55;2.02;;;;;;;16.07;75.67;96780.27;1758613;80;21287;-81
2021/08/21 01:45:45;;;;;;;2.87;1.98;;;;;;;16.06;75.76;96786.52;1765076;80;21290;-81
2021/08/21 01:48:12;;;;;;;2.58;1.90;;;;;;;15.99;75.79;96784.44;1770226;79;20980;-81
2021/08/21 01:50:38;;;;;;;3.50;1.75;;;;;;;15.94;75.77;96787.65;1766180;80;21399;-82
2021/08/21 01:53:04;;;;;;;3.95;1.95;;;;;;;15.90;75.80;96786.45;1770667;79;21332;-81
2021/08/21 01:55:30;;;;;;;2.98;1.87;;;;;;;15.87;75.72;96781.12;1765626;79;20971;-81
2021/08/21 01:57:56;;;;;;;2.20;1.85;;;;;;;15.84;75.71;96780.73;1768524;80;20996;-82
2021/08/21 02:00:27;;;;;;;2.72;2.30;;;;;;;15.79;75.85;96787.11;1765962;80;20974;-81
2021/08/21 02:02:49;;;;;;;2.62;2.10;;;;;;;15.75;75.93;96779.33;1763878;80;21102;-81
2021/08/21 02:05:15;;;;;;;2.98;2.30;;;;;;;15.71;75.97;96789.41;1761751;79;21331;-81
2021/08/21 02:07:41;;;;;;;3.67;1.92;;;;;;;15.66;75.73;96786.61;1753069;80;21015;-81
2021/08/21 02:10:07;;;;;;;2.62;2.02;;;;;;;15.61;75.73;96788.51;1760767;80;20968;-81
2021/08/21 02:12:34;;;;;;;4.12;2.58;;;;;;;15.57;75.83;96783.86;1761818;79;20988;-81
2021/08/21 02:15:05;;;;;;;4.08;2.17;;;;;;;15.53;75.97;96781.34;1759032;80;21405;-81
2021/08/21 02:17:31;;;;;;;3.62;2.15;;;;;;;15.49;76.11;96788.81;1764801;80;22020;-81
2021/08/21 02:19:58;;;;;;;4.72;2.05;;;;;;;15.47;75.98;96783.48;1768612;79;20992;-81
2021/08/21 02:22:24;;;;;;;3.37;2.00;;;;;;;15.45;75.87;96786.27;1763870;80;20975;-81
2021/08/21 02:24:53;;;;;;;2.55;1.95;;;;;;;15.44;75.78;96778.12;1760734;80;21301;-81
2021/08/21 02:27:24;;;;;;;2.65;2.00;;;;;;;15.42;75.66;96789.30;1769210;80;21404;-81
2021/08/21 02:29:50;;;;;;;2.72;2.22;;;;;;;15.38;75.83;96788.61;1760020;80;20952;-81
2021/08/21 02:32:16;;;;;;;2.67;1.87;;;;;;;15.33;76.18;96790.53;1765120;79;21030;-81
2021/08/21 02:34:42;;;;;;;2.83;1.90;;;;;;;15.29;76.30;96791.91;1764716;80;21001;-81
2021/08/21 02:37:08;;;;;;;3.85;1.90;;;;;;;15.24;76.33;96791.22;1760928;80;20930;-81
2021/08/21 02:39:35;;;;;;;4.67;2.27;;;;;;;15.21;76.35;96787.70;1764713;79;21332;-81
2021/08/21 02:42:01;;;;;;;3.22;2.40;;;;;;;15.19;76.41;96787.59;1759744;80;21346;-81
2021/08/21 02:44:28;;;;;;;3.33;2.33;;;;;;;15.16;76.53;96786.70;1767748;80;21408;-81
2021/08/21 02:46:54;;;;;;;5.28;2.25;;;;;;;15.13;76.75;96787.07;1766882;80;21035;-81
2021/08/21 02:49:19;;;;;;;3.22;1.95;;;;;;;15.09;76.83;96791.10;1765530;80;20953;-81
2021/08/21 02:51:45;;;;;;;3.25;1.92;;;;;;;15.06;76.85;96788.89;1759193;80;21315;-81
2021/08/21 02:54:11;;;;;;;3.12;2.27;;;;;;;15.04;76.86;96786.98;1764287;79;21424;-81
2021/08/21 02:56:36;;;;;;;4.28;2.30;;;;;;;15.01;76.88;96788.99;1763118;79;20945;-81
2021/08/21 02:59:02;;;;;;;3.22;2.15;;;;;;;15.01;77.01;96791.61;1764664;80;20948;-81
2021/08/21 03:01:28;;;;;;;4.67;2.80;;;;;;;14.97;77.03;96793.02;1762679;80;21385;-81
2021/08/21 03:03:54;;;;;;;4.87;2.33;;;;;;;14.94;77.26;96793.39;1764825;80;20940;-81
2021/08/21 03:06:20;;;;;;;2.95;2.15;;;;;;;14.92;77.46;96799.83;1764000;80;21337;-81
2021/08/21 03:08:46;;;;;;;3.67;2.30;;;;;;;14.92;77.87;96795.91;1759519;80;21023;-81
2021/08/21 03:11:12;;;;;;;5.87;3.25;;;;;;;14.91;77.79;96799.03;1767207;80;20979;-81
2021/08/21 03:13:40;;;;;;;3.77;2.50;;;;;;;14.90;77.76;96794.00;1768513;80;21029;-81
2021/08/21 03:16:06;;;;;;;4.20;2.70;;;;;;;14.89;77.85;96793.69;1759104;80;21331;-81
2021/08/21 03:18:32;;;;;;;2.92;2.17;;;;;;;14.88;78.09;96798.13;1768743;78;21059;-81
2021/08/21 03:20:58;;;;;;;3.33;2.37;;;;;;;14.86;78.21;96799.33;1781532;78;20960;-81
2021/08/21 03:23:23;;;;;;;3.22;2.17;;;;;;;14.82;78.26;96798.92;1796390;78;21311;-81
2021/08/21 03:25:50;;;;;;;3.60;2.40;;;;;;;14.79;78.29;96801.91;1801293;78;20949;-81
2021/08/21 03:28:16;;;;;;;3.77;2.40;;;;;;;14.78;78.38;96811.27;1798594;78;21100;-81
2021/08/21 03:30:41;;;;;;;2.80;2.40;;;;;;;14.76;78.39;96810.16;1803754;78;21032;-81
2021/08/21 03:33:08;;;;;;;2.83;2.17;;;;;;;14.76;78.48;96812.77;1801272;78;21016;-81
2021/08/21 03:35:34;;;;;;;3.02;2.25;;;;;;;14.75;78.42;96809.86;1774089;80;20946;-81
2021/08/21 03:38:01;;;;;;;4.03;2.25;;;;;;;14.73;78.47;96815.79;1773799;80;22249;-81
2021/08/21 03:40:26;;;;;;;3.42;2.40;;;;;;;14.71;78.74;96818.61;1773988;80;21278;-81
2021/08/21 03:42:52;;;;;;;2.85;2.25;;;;;;;14.67;78.86;96814.78;1770362;80;21065;-81
2021/08/21 03:45:19;;;;;;;4.33;2.60;;;;;;;14.67;78.87;96818.70;1775471;80;21363;-81
2021/08/21 03:47:47;;;;;;;3.25;2.20;;;;;;;14.67;78.95;96819.20;1771952;80;20974;-81
2021/08/21 03:50:12;;;;;;;3.58;2.30;;;;;;;14.68;78.97;96819.50;1773601;80;21436;-81
2021/08/21 03:52:39;;;;;;;3.27;2.62;;;;;;;14.69;79.12;96819.81;1771910;80;21035;-81
2021/08/21 03:55:05;;;;;;;4.15;2.87;;;;;;;14.70;79.24;96827.45;1769731;79;20943;-81
2021/08/21 03:57:31;;;;;;;4.12;2.52;;;;;;;14.70;79.20;96826.15;1771897;80;20931;-82
2021/08/21 03:59:57;;;;;;;3.80;2.50;;;;;;;14.70;79.22;96827.95;1768313;80;21286;-81
2021/08/21 04:02:23;;;;;;;3.00;2.50;;;;;;;14.67;79.33;96827.85;1766521;80;20966;-81
2021/08/21 04:04:48;;;;;;;2.37;1.87;;;;;;;14.68;79.39;96832.58;1768768;80;20944;-81
2021/08/21 04:07:17;;;;;;;4.42;2.40;;;;;;;14.69;79.50;96832.38;1772296;80;21341;-81
2021/08/21 04:09:44;;;;;;;4.55;2.37;;;;;;;14.70;79.56;96833.19;1764591;80;20978;-81
2021/08/21 04:12:09;;;;;;;3.80;2.20;;;;;;;14.71;79.50;96833.49;1765842;80;21031;-81
2021/08/21 04:14:35;;;;;;;3.02;2.52;;;;;;;14.73;79.55;96835.41;1800244;78;21332;-81
2021/08/21 04:17:01;;;;;;;5.28;2.92;;;;;;;14.73;79.54;96841.14;1793328;78;21033;-81
2021/08/21 04:19:27;;;;;;;4.35;2.40;;;;;;;14.71;79.63;96842.14;1782331;78;21045;-81
2021/08/21 04:21:54;;;;;;;4.22;2.40;;;;;;;14.71;79.75;96846.57;1764724;80;20939;-81
2021/08/21 04:24:19;;;;;;;5.10;2.52;;;;;;;14.73;79.87;96845.87;1759561;79;21006;-81
2021/08/21 04:26:45;;;;;;;3.35;2.20;;;;;;;14.76;79.81;96842.05;1766445;80;21031;-81
2021/08/21 04:29:13;;;;;;;3.47;2.50;;;;;;;14.80;79.87;96854.53;1755629;80;20922;-81
2021/08/21 04:31:39;;;;;;;2.80;2.47;;;;;;;14.82;79.88;96855.67;1761888;79;20967;-81
2021/08/21 04:34:06;;;;;;;3.87;2.60;;;;;;;14.84;79.95;96856.28;1765653;80;21004;-81
2021/08/21 04:36:32;;;;;;;4.40;2.92;;;;;;;14.85;80.00;96857.39;1759505;79;21346;-81
2021/08/21 04:38:57;;;;;;;4.62;2.90;;;;;;;14.87;80.02;96856.69;1764112;80;20979;-81
2021/08/21 04:41:23;;;;;;;3.92;2.60;;;;;;;14.89;80.17;96857.80;1763658;80;21002;-81
2021/08/21 04:43:49;;;;;;;2.75;2.30;;;;;;;14.93;80.17;96860.31;1761820;80;21315;-81
2021/08/21 04:46:15;;;;;;;3.80;2.30;;;;;;;14.95;80.12;96864.34;1765864;80;21027;-81
2021/08/21 04:48:40;;;;;;;4.05;2.72;;;;;;;14.97;80.13;96864.98;1765807;80;20958;-81
2021/08/21 04:51:06;;;;;;;5.72;3.02;;;;;;;15.01;80.17;96870.62;1760335;80;20967;-81
2021/08/21 04:53:32;;;;;;;4.05;3.02;;;;;;;15.00;80.18;96873.73;1762275;80;21328;-81
2021/08/21 04:55:57;;;;;;;3.75;2.85;;;;;;;15.04;80.30;96875.95;1765995;80;21363;-81
2021/08/21 04:58:23;;;;;;;4.00;2.80;;;;;;;15.08;80.39;96874.55;1767458;80;20952;-81
2021/08/21 05:00:49;;;;;;;4.47;2.30;;;;;;;15.15;80.54;96876.19;1766807;80;21409;-81
2021/08/21 05:03:15;;;;;;;3.33;2.10;;;;;;;15.25;80.63;96877.09;1767492;80;20935;-81
2021/08/21 05:05:40;;;;;;;4.03;2.67;;;;;;;15.35;80.68;96881.45;1767199;80;20944;-81
2021/08/21 05:08:06;;;;;;;4.17;2.85;;;;;;;15.45;80.74;96883.16;1763752;80;20952;-81
2021/08/21 05:10:32;;;;;;;3.30;2.55;;;;;;;15.54;80.59;96889.03;1759177;80;21402;-81
2021/08/21 05:12:58;;;;;;;3.58;2.42;;;;;;;15.63;80.54;96887.88;1762438;80;21008;-81
2021/08/21 05:15:23;;;;;;;4.47;2.77;;;;;;;15.71;80.59;96895.52;1758183;80;21034;-81
2021/08/21 05:17:51;;;;;;;4.20;2.77;;;;;;;15.81;80.75;96893.82;1730796;81;21338;-81
2021/08/21 05:20:26;;;;;;;3.45;2.50;;;;;;;15.87;80.71;96896.93;1749007;80;21054;-81
2021/08/21 05:25:15;;;;;;;3.77;2.87;;;;;;;16.04;80.70;96903.88;1721826;81;21278;-81
2021/08/21 05:27:41;;;;;;;5.12;3.30;;;;;;;16.11;80.68;96896.32;1756966;80;20934;-81
2021/08/21 05:30:07;;;;;;;3.62;2.83;;;;;;;16.20;80.72;96899.52;1756091;80;21274;-81
2021/08/21 05:32:37;;;;;;;4.42;2.60;;;;;;;16.32;80.70;96903.64;1749557;80;20986;-81
2021/08/21 05:35:04;;;;;;;3.77;2.72;;;;;;;16.40;80.77;96910.77;1713969;81;21022;-81
2021/08/21 05:37:30;;;;;;;4.30;2.70;;;;;;;16.55;81.03;96905.29;1750775;81;20915;-81
2021/08/21 05:39:55;;;;;;;5.58;2.45;;;;;;;16.66;80.82;96907.28;1748224;80;20971;-81
2021/08/21 05:42:21;;;;;;;3.70;2.90;;;;;;;16.74;80.99;96915.45;1755849;80;20999;-81
2021/08/21 05:44:47;;;;;;;4.10;2.77;;;;;;;16.83;80.85;96917.34;1751629;80;21309;-81
2021/08/21 05:47:12;;;;;;;4.30;2.87;;;;;;;16.92;80.85;96921.33;1751007;80;20935;-81
2021/08/21 05:49:38;;;;;;;4.83;2.80;;;;;;;17.00;80.81;96924.55;1744341;81;21003;-81
2021/08/21 05:52:05;;;;;;;5.37;4.53;;;;;;;17.07;80.51;96928.44;1759386;80;20968;-81
2021/08/21 05:54:30;;;;;;;4.08;2.83;;;;;;;17.10;79.39;96923.59;1755838;80;21047;-81
2021/08/21 05:56:57;;;;;;;4.35;3.45;;;;;;;17.18;80.04;96927.79;1750349;80;20986;-81
2021/08/21 05:59:24;;;;;;;4.65;3.72;;;;;;;17.28;79.90;96929.47;1754560;80;20951;-81
2021/08/21 06:01:50;;;;;;;4.03;3.50;;;;;;;17.35;79.63;96926.28;1746924;80;21330;-81
2021/08/21 06:04:15;;;;;;;5.15;3.45;;;;;;;17.38;79.77;96925.86;1754962;80;21041;-81
2021/08/21 06:06:41;;;;;;;5.85;3.67;;;;;;;17.43;79.86;96921.81;1749606;80;20983;-81
2021/08/21 06:09:07;;;;;;;4.90;3.35;;;;;;;17.43;79.98;96927.88;1762051;80;21409;-81
2021/08/21 06:11:33;;;;;;;3.45;2.90;;;;;;;17.48;80.01;96922.77;1755380;80;20924;-81
2021/08/21 06:13:59;;;;;;;5.85;4.40;;;;;;;17.56;79.85;96925.13;1755593;80;20951;-81
2021/08/21 06:16:25;;;;;;;11.75;8.40;;;;;;;17.65;79.49;96922.56;1748339;80;20986;-81
2021/08/21 06:18:50;;;;;;;6.47;5.87;;;;;;;17.70;78.29;96928.52;1747125;80;20931;-81
2021/08/21 06:21:16;;;;;;;7.03;5.83;;;;;;;17.72;77.71;96927.78;1777414;79;20988;-81
2021/08/21 06:23:42;;;;;;;8.13;6.25;;;;;;;17.76;77.70;96930.81;1788022;79;20917;-81
2021/08/21 06:26:08;;;;;;;8.53;6.83;;;;;;;17.82;77.36;96927.33;1776486;79;20924;-81
2021/08/21 06:28:34;;;;;;;10.32;8.25;;;;;;;17.87;77.07;96930.91;1768397;79;20959;-81
2021/08/21 06:31:00;;;;;;;10.03;7.12;;;;;;;17.89;76.76;96922.80;1779547;79;21344;-81
2021/08/21 06:33:26;;;;;;;8.88;6.55;;;;;;;17.94;76.40;96924.30;1779955;79;20980;-81
2021/08/21 06:35:52;;;;;;;8.25;6.28;;;;;;;18.03;76.57;96920.37;1780639;79;21015;-81
2021/08/21 06:38:17;;;;;;;8.30;6.80;;;;;;;18.10;76.50;96919.82;1771709;79;20975;-81
2021/08/21 06:40:43;;;;;;;8.35;5.37;;;;;;;18.13;76.11;96923.84;1778394;79;21283;-81
2021/08/21 06:43:09;;;;;;;9.25;6.87;;;;;;;18.18;76.14;96916.09;1777971;79;20920;-81
2021/08/21 06:45:34;;;;;;;8.43;6.55;;;;;;;18.24;75.87;96922.63;1775253;79;20926;-81
2021/08/21 06:48:00;;;;;;;8.45;7.37;;;;;;;18.26;75.44;96918.47;1775634;79;21329;-81
2021/08/21 06:50:26;;;;;;;8.40;6.62;;;;;;;18.25;75.16;96922.12;1779598;79;20916;-81
2021/08/21 06:52:52;;;;;;;8.23;6.15;;;;;;;18.25;75.34;96926.87;1777512;79;20998;-81
2021/08/21 06:55:18;;;;;;;9.53;7.10;;;;;;;18.24;75.25;96921.83;1777314;79;21287;-81
2021/08/21 06:57:44;;;;;;;9.55;6.25;;;;;;;18.23;75.19;96924.16;1778804;79;21317;-81
2021/08/21 07:00:12;;;;;;;7.72;5.42;;;;;;;18.24;75.20;96925.26;1783773;79;20942;-81
2021/08/21 07:02:38;;;;;;;6.65;5.15;;;;;;;18.28;74.88;96928.25;1786191;79;21313;-81
2021/08/21 07:05:04;;;;;;;7.12;5.42;;;;;;;18.33;74.81;96926.28;1778067;79;20923;-81
2021/08/21 07:07:30;;;;;;;7.70;5.87;;;;;;;18.40;75.03;96927.84;1758790;79;20943;-81
2021/08/21 07:09:56;;;;;;;6.78;5.28;;;;;;;18.46;74.66;96926.95;1780765;79;20978;-81
2021/08/21 07:12:22;;;;;;;9.53;6.15;;;;;;;18.47;74.25;96931.20;1778622;79;21394;-81
2021/08/21 07:14:47;;;;;;;6.80;5.33;;;;;;;18.52;74.62;96933.17;1781099;79;20959;-81
2021/08/21 07:17:14;;;;;;;7.42;5.80;;;;;;;18.58;74.59;96935.75;1784672;79;20921;-81
2021/08/21 07:19:42;;;;;;;6.50;5.83;;;;;;;18.69;74.72;96943.95;1786309;79;20974;-81
2021/08/21 07:22:08;;;;;;;7.90;5.28;;;;;;;18.73;73.69;96936.73;1802213;78;20929;-82
2021/08/21 07:24:35;;;;;;;7.58;5.53;;;;;;;18.76;73.68;96942.07;1804587;79;22127;-82
2021/08/21 07:27:01;;;;;;;7.80;5.67;;;;;;;18.82;73.55;96941.98;1806403;78;21083;-82
2021/08/21 07:29:27;;;;;;;8.85;5.25;;;;;;;18.89;73.67;96944.56;1805025;77;21066;-81
2021/08/21 07:31:54;;;;;;;7.03;5.80;;;;;;;18.97;73.70;96942.13;1796938;78;20942;-81
2021/08/21 07:34:19;;;;;;;7.47;5.55;;;;;;;19.06;73.31;96950.03;1795346;78;21032;-82
2021/08/21 07:36:45;;;;;;;6.58;5.00;;;;;;;19.09;72.89;96952.22;1804745;78;21000;-82
2021/08/21 07:39:11;;;;;;;6.42;5.70;;;;;;;19.07;72.92;96947.17;1800621;78;22163;-82
2021/08/21 07:41:36;;;;;;;7.17;5.50;;;;;;;19.12;72.79;96954.41;1800103;78;20933;-81
2021/08/21 07:44:03;;;;;;;7.17;6.28;;;;;;;19.21;72.59;96951.77;1801749;78;21000;-81
2021/08/21 07:46:31;;;;;;;7.87;5.87;;;;;;;19.25;72.63;96965.30;1803528;78;21343;-82
2021/08/21 07:48:57;;;;;;;6.58;5.83;;;;;;;19.29;72.42;96961.19;1803018;78;20948;-81
2021/08/21 07:51:22;;;;;;;6.53;3.95;;;;;;;19.30;72.54;96965.42;1802016;78;20940;-81
2021/08/21 07:53:48;;;;;;;6.45;4.90;;;;;;;19.36;73.03;96961.89;1805344;78;20886;-82
2021/08/21 07:56:14;;;;;;;8.78;6.05;;;;;;;19.45;72.63;96968.47;1804175;78;20902;-81
2021/08/21 07:58:39;;;;;;;8.60;6.15;;;;;;;19.50;72.19;96967.28;1799270;78;20972;-81
2021/08/21 08:01:05;;;;;;;7.20;5.40;;;;;;;19.50;71.75;96971.23;1799000;78;20885;-82
2021/08/21 08:03:31;;;;;;;7.00;6.30;;;;;;;19.49;71.69;96966.98;1802217;78;20917;-81
2021/08/21 08:05:56;;;;;;;10.55;9.13;;;;;;;19.46;71.76;96966.13;1805587;77;20961;-82
2021/08/21 08:08:23;;;;;;;9.48;8.50;;;;;;;19.48;71.77;96965.38;1799389;78;20929;-81
2021/08/21 08:10:51;;;;;;;7.53;6.42;;;;;;;19.53;71.70;96968.69;1811903;78;20936;-81
2021/08/21 08:13:17;;;;;;;7.33;6.33;;;;;;;19.45;70.81;96965.84;1807093;77;21331;-82
2021/08/21 08:15:43;;;;;;;7.33;6.33;;;;;;;19.45;71.03;96972.42;1807366;78;20934;-82
2021/08/21 08:18:09;;;;;;;8.65;6.03;;;;;;;19.61;70.93;96967.87;1805864;78;20891;-82
2021/08/21 08:20:35;;;;;;;8.05;6.22;;;;;;;19.61;70.93;96967.87;1789419;78;21057;-81
2021/08/21 08:23:02;;;;;;;15.38;10.18;;;;;;;19.71;70.94;96972.62;1805305;78;21380;-81
2021/08/21 08:25:29;;;;;;;9.10;7.37;;;;;;;19.80;71.07;96972.57;1798152;78;20992;-82
2021/08/21 08:27:54;;;;;;;6.80;5.53;;;;;;;19.96;70.20;96979.83;1808561;78;21307;-82
2021/08/21 08:30:20;;;;;;;6.30;5.70;;;;;;;20.07;69.57;96980.38;1752053;80;20977;-82
2021/08/21 08:32:46;;;;;;;6.85;6.15;;;;;;;20.20;69.12;96982.52;1736609;81;20978;-82
2021/08/21 08:35:12;;;;;;;7.97;6.50;;;;;;;20.41;68.73;96989.91;1740199;81;21044;-82
2021/08/21 08:37:39;;;;;;;5.92;4.70;;;;;;;20.58;68.25;96976.83;1742192;81;21305;-82
2021/08/21 08:40:06;;;;;;;7.37;6.12;;;;;;;20.75;69.05;96976.41;1804754;78;20968;-81
2021/08/21 08:42:32;;;;;;;11.20;8.10;;;;;;;20.90;68.26;96980.69;1802452;78;21033;-81
2021/08/21 08:44:59;;;;;;;7.17;6.45;;;;;;;20.87;68.39;96979.04;1801332;78;20897;-82
2021/08/21 08:47:25;;;;;;;8.73;6.40;;;;;;;20.78;67.58;96983.86;1793761;78;20948;-82
2021/08/21 08:49:51;;;;;;;6.25;5.65;;;;;;;20.70;67.85;96988.70;1802328;78;20968;-82
2021/08/21 08:52:18;;;;;;;6.22;5.45;;;;;;;20.65;67.58;96991.50;1798942;78;21327;-81
2021/08/21 08:54:44;;;;;;;3.60;3.30;;;;;;;20.59;67.53;96995.59;1799108;78;20932;-81
2021/08/21 08:57:20;;;;;;;6.00;4.33;;;;;;;20.56;68.54;96996.05;1792911;78;20936;-82
2021/08/21 08:59:45;;;;;;;4.08;3.67;;;;;;;20.54;69.03;96994.97;1785105;78;20956;-81
2021/08/21 09:02:11;;;;;;;5.08;3.83;;;;;;;20.61;69.00;96990.87;1798030;78;20929;-82
2021/08/21 09:04:37;;;;;;;7.42;6.62;;;;;;;20.80;69.31;96991.03;1793248;78;21936;-82
2021/08/21 09:07:03;;;;;;;7.95;7.12;;;;;;;20.91;67.67;96988.91;1801633;78;21007;-80
2021/08/21 09:09:29;;;;;;;7.83;6.75;;;;;;;21.02;67.06;96989.13;1801095;78;21008;-80
2021/08/21 09:11:55;;;;;;;7.60;6.20;;;;;;;21.06;67.32;96984.97;1797237;78;20956;-80
2021/08/21 09:14:29;;;;;;;7.00;6.30;;;;;;;21.10;67.36;96990.07;1799849;79;21370;-80
2021/08/21 09:17:20;;;;;;;6.55;5.85;;;;;;;21.12;65.79;96991.44;1794874;78;20987;-81
2021/08/21 09:19:46;;;;;;;5.80;5.30;;;;;;;21.09;65.90;96998.52;1792752;78;20978;-81
2021/08/21 09:22:13;;;;;;;5.47;4.87;;;;;;;21.09;65.51;97003.00;1752882;81;21390;-80
2021/08/21 09:24:39;;;;;;;5.55;4.67;;;;;;;21.06;65.31;96998.98;1758827;80;20988;-80
2021/08/21 09:27:24;;;;;;;6.15;5.55;;;;;;;21.23;66.68;96999.06;1756456;81;20924;-80
2021/08/21 09:30:13;;;;;;;9.48;6.05;;;;;;;21.40;64.74;96997.31;1745720;79;21025;-80
2021/08/21 09:32:36;;;;;;;6.65;6.05;;;;;;;21.43;64.86;96992.88;1754746;81;21335;-81
2021/08/21 09:35:08;;;;;;;8.13;7.33;;;;;;;21.58;64.18;96994.48;1761717;80;20927;-81
2021/08/21 09:37:51;;;;;;;7.28;6.58;;;;;;;21.54;63.83;96986.75;1755728;80;20941;-80
2021/08/21 09:40:33;;;;;;;8.23;6.70;;;;;;;21.45;64.86;96992.11;1754971;80;21334;-81
2021/08/21 09:42:59;;;;;;;6.47;5.87;;;;;;;21.35;63.93;96987.97;1749712;81;21023;-81
2021/08/21 09:45:25;;;;;;;7.28;6.30;;;;;;;21.22;64.78;96993.49;1752016;80;20982;-81
2021/08/21 09:48:07;;;;;;;7.40;6.58;;;;;;;21.06;63.17;97001.62;1749605;81;21038;-81
2021/08/21 09:50:40;;;;;;;10.08;6.87;;;;;;;20.94;64.49;97000.84;1755617;81;20970;-81
2021/08/21 09:53:12;;;;;;;8.63;6.47;;;;;;;20.93;63.97;97001.36;1753897;81;21336;-81
2021/08/21 09:55:39;;;;;;;6.95;4.50;;;;;;;20.93;64.41;97004.00;1762885;80;20984;-81
2021/08/21 09:58:14;;;;;;;5.67;5.08;;;;;;;21.02;66.30;97002.34;1754223;80;20920;-81
2021/08/21 10:00:37;;;;;;;;;;;;;;;21.10;66.87;97004.09;1762500;81;21955;-81
2021/08/21 10:03:04;;;;;;;8.68;7.55;;;;;;;21.12;65.11;96998.05;1748659;80;20078;-81
2021/08/21 10:05:31;;;;;;;8.48;7.58;;;;;;;21.07;64.12;96999.79;1758160;79;20994;-81
2021/08/21 10:08:09;;;;;;;6.80;5.65;;;;;;;21.04;64.65;97002.91;1763696;80;20971;-80
2021/08/21 10:10:33;;;;;;;10.13;6.62;;;;;;;21.07;65.59;96991.34;1751000;80;21065;-81
2021/08/21 10:12:58;;;;;;;6.17;5.58;;;;;;;21.21;65.67;96993.21;1757419;80;20925;-81
2021/08/21 10:15:23;;;;;;;6.95;4.97;;;;;;;21.27;65.20;96993.61;1751697;80;20968;-81
2021/08/21 10:17:49;;;;;;;6.12;5.53;;;;;;;21.24;64.69;96994.06;1753749;80;20976;-81
2021/08/21 10:20:15;;;;;;;7.10;6.30;;;;;;;21.17;63.67;96989.44;1751091;79;20984;-80
2021/08/21 10:22:41;;;;;;;7.78;6.70;;;;;;;21.11;63.01;96987.19;1754071;81;20968;-80
2021/08/21 10:25:09;;;;;;;12.45;10.23;;;;;;;21.13;63.15;96992.23;1749570;81;20991;-80
2021/08/21 10:27:56;;;;;;;7.00;6.30;;;;;;;21.26;62.08;96993.33;1755474;80;20955;-81
2021/08/21 10:30:25;;;;;;;5.95;4.80;;;;;;;21.28;61.21;96989.94;1755535;81;20983;-80
2021/08/21 10:33:03;;;;;;;6.37;5.03;;;;;;;21.37;62.09;96987.73;1742580;80;20925;-81
2021/08/21 10:35:55;;;;;;;5.55;4.72;;;;;;;21.48;63.20;96989.55;1749194;80;20972;-80
2021/08/21 10:38:37;;;;;;;5.67;4.90;;;;;;;21.52;63.43;96984.87;1748560;79;20987;-81
2021/08/21 10:41:27;;;;;;;5.08;4.58;;;;;;;21.62;60.56;96984.75;1748729;80;21032;-81
2021/08/21 10:43:55;;;;;;;5.72;4.78;;;;;;;21.70;60.25;96983.06;1744691;80;21417;-81
2021/08/21 10:46:35;;;;;;;5.72;5.10;;;;;;;21.78;61.14;96978.69;1748479;80;21015;-80
2021/08/21 10:49:03;;;;;;;6.85;6.15;;;;;;;21.88;60.56;96981.53;1751292;80;20952;-81
2021/08/21 10:51:37;;;;;;;6.55;5.95;;;;;;;21.85;58.46;96981.48;1748190;80;20940;-81
2021/08/21 10:54:29;;;;;;;6.47;5.87;;;;;;;21.88;59.15;96982.84;1747303;81;21381;-81
2021/08/21 10:57:01;;;;;;;10.72;9.63;;;;;;;21.99;58.55;96980.67;1750169;81;20983;-80
2021/08/21 10:59:43;;;;;;;;;;;;;;;;;;1736499;81;21370;-80
2021/08/21 11:02:35;;;;;;;8.38;6.55;;;;;;;22.20;58.37;96979.70;1748676;80;20081;-81
2021/08/21 11:05:00;;;;;;;7.03;5.22;;;;;;;22.33;58.45;96982.83;1742534;80;21003;-80
2021/08/21 11:07:41;;;;;;;6.90;6.00;;;;;;;22.46;57.45;96977.73;1746635;80;21496;-81
2021/08/21 11:10:23;;;;;;;5.37;4.87;;;;;;;22.61;57.00;96979.25;1752556;80;20990;-81
2021/08/21 11:12:52;;;;;;;5.83;4.62;;;;;;;22.69;57.28;96979.38;1747318;80;20962;-81
2021/08/21 11:15:21;;;;;;;5.00;4.45;;;;;;;22.68;58.00;96975.92;1718637;81;20944;-80
2021/08/21 11:17:47;;;;;;;4.90;4.50;;;;;;;22.53;56.20;96978.35;1755184;80;20972;-80
2021/08/21 11:20:36;;;;;;;4.17;3.77;;;;;;;22.35;56.55;96978.61;1751364;79;21000;-80
2021/08/21 11:23:17;;;;;;;5.35;4.83;;;;;;;22.26;57.28;96982.69;1817111;78;20947;-80
2021/08/21 11:25:44;;;;;;;5.97;5.47;;;;;;;22.26;56.44;96982.69;1803203;78;20914;-80
2021/08/21 11:28:20;;;;;;;6.47;5.65;;;;;;;22.27;56.47;96980.33;1794153;78;20992;-80
2021/08/21 11:30:41;;;;;;;5.20;4.80;;;;;;;22.44;56.49;96983.77;1800607;78;20958;-80
2021/08/21 11:33:12;;;;;;;4.90;4.40;;;;;;;22.63;56.81;96979.03;1777942;78;20999;-80
2021/08/21 11:35:48;;;;;;;7.00;4.83;;;;;;;22.60;57.57;96980.30;1803737;79;21271;-80
2021/08/21 11:38:27;;;;;;;4.55;3.95;;;;;;;22.59;56.68;96978.69;1792184;78;20952;-80